Latest Weather Observations for Oodnadatta

IDS60801

Issued at 11:31 pm CST Sunday 28 May 2017 (issued every 30 minutes, with the page automatically refreshed every 10 minutes)

About weather observations | Map of weather stations | Latest weather observations for SA | Other Formats
Station Details ID: 017043 Name: OODNADATTA AIRPORT Lat: -27.56 Lon: 135.45 Height: 116.5 m
Data from the previous 72 hours. | See also: Recent months at Oodnadatta
Date/Time
CST
Temp
°C
App
Temp
°C
Dew
Point
°C
Rel
Hum
%
Delta-T
°C
Wind Press
QNH
hPa
Press
MSL
hPa
Rain since
9am
mm
Dir  Spd
km/h
Gust
km/h
Spd
kts
Gust
kts
28/11:30pm 11.8 9.0 3.3 56 3.8 S 7 9 4 5 1024.1 1024.0 0.0
28/11:00pm 12.0 8.9 3.5 56 3.8 S 9 9 5 5 1023.9 1023.8 0.0
28/10:30pm 12.5 9.0 3.5 54 4.0 S 11 11 6 6 1024.1 1024.0 0.0
28/10:00pm 12.5 9.8 3.5 54 4.0 SSW 7 9 4 5 1024.0 1023.9 0.0
28/09:30pm 12.9 9.4 3.3 52 4.3 SSW 11 13 6 7 1023.9 1023.8 0.0
28/09:00pm 13.4 10.2 3.2 50 4.6 SSW 9 11 5 6 1023.7 1023.5 0.0
28/08:30pm 14.2 10.8 3.9 50 4.7 SSW 11 13 6 7 1023.4 1023.2 0.0
28/08:00pm 14.6 11.1 3.7 48 5.0 SSW 11 13 6 7 1023.1 1022.9 0.0
28/07:30pm 15.4 12.0 4.2 47 5.2 SSW 11 11 6 6 1022.6 1022.4 0.0
28/07:00pm 16.4 12.7 4.4 45 5.7 SSW 13 15 7 8 1022.2 1022.0 0.0
28/06:30pm 17.3 13.7 4.9 44 5.9 SSW 13 17 7 9 1021.7 1021.5 0.0
28/06:00pm 18.3 14.0 5.2 42 6.3 SSW 17 20 9 11 1021.3 1021.1 0.0
28/05:30pm 19.0 14.0 4.7 39 6.9 SSW 20 28 11 15 1020.9 1020.7 0.0
28/05:00pm 19.8 14.1 4.7 37 7.4 SSW 24 30 13 16 1020.7 1020.5 0.0
28/04:30pm 20.2 14.8 4.7 36 7.5 SSW 22 33 12 18 1020.4 1020.2 0.0
28/04:00pm 20.0 15.1 4.9 37 7.4 SSW 20 33 11 18 1020.3 1020.1 0.0
28/03:30pm 20.1 15.1 4.6 36 7.5 SW 20 28 11 15 1020.3 1020.1 0.0
28/03:00pm 20.2 14.9 5.1 37 7.4 S 22 35 12 19 1020.4 1020.2 0.0
28/02:30pm 20.1 14.9 5.7 39 7.1 S 22 30 12 16 1020.5 1020.3 0.0
28/02:00pm 20.3 15.7 6.6 41 6.9 SSW 20 28 11 15 1020.7 1020.5 0.0
28/01:30pm 20.3 15.7 6.6 41 6.9 SSW 20 43 11 23 1020.9 1020.7 0.0
28/01:00pm 19.7 13.7 7.1 44 6.4 SSW 28 43 15 23 1021.2 1021.0 0.0
28/12:30pm 19.3 13.4 7.4 46 6.1 S 28 37 15 20 1021.7 1021.5 0.0
28/12:00pm 19.5 15.4 8.5 49 5.7 SSW 20 30 11 16 1022.2 1022.0 0.0
28/11:30am 18.1 13.9 8.1 52 5.1 SSW 20 28 11 15 1022.6 1022.4 0.0
28/11:00am 17.2 13.2 8.4 56 4.5 SSW 19 28 10 15 1023.0 1022.8 0.0
28/10:30am 16.2 12.4 8.9 62 3.8 SSW 19 26 10 14 1023.2 1023.0 0.0
28/10:00am 15.4 10.6 8.9 65 3.3 SSW 24 30 13 16 1023.0 1022.8 0.0
28/09:30am 14.7 9.8 8.6 67 3.1 SSW 24 32 13 17 1022.8 1022.6 0.0
28/09:00am 14.0 9.5 8.4 69 2.8 SSW 22 28 12 15 1022.5 1022.3 0.0
28/08:30am 12.8 9.4 7.5 70 2.6 SW 15 20 8 11 1022.3 1022.1 0.0
28/08:00am 11.0 8.4 6.2 72 2.3 SW 9 13 5 7 1022.0 1021.8 0.0
28/07:30am 9.4 6.0 4.0 69 2.4 SSW 11 13 6 7 1021.5 1021.3 0.0
28/07:00am 9.5 5.8 4.3 70 2.3 SW 13 15 7 8 1021.1 1020.9 0.0
28/06:30am 9.9 6.3 4.9 71 2.3 SW 13 15 7 8 1020.8 1020.6 0.0
28/06:00am 10.2 7.3 4.4 67 2.6 SW 9 13 5 7 1020.4 1020.2 0.0
28/05:30am 10.2 7.1 3.7 64 2.9 SW 9 11 5 6 1020.1 1019.9 0.0
28/05:00am 9.9 6.2 2.5 60 3.2 SSW 11 13 6 7 1019.9 1019.7 0.0
28/04:30am 10.7 7.4 2.3 56 3.6 SSW 9 11 5 6 1019.8 1019.6 0.0
28/04:00am 11.0 7.6 1.8 53 3.9 SSW 9 11 5 6 1019.9 1019.7 0.0
28/03:30am 11.8 7.6 1.4 49 4.4 SSW 13 17 7 9 1019.7 1019.5 0.0
28/03:00am 12.4 7.2 -0.1 42 5.2 SSW 17 20 9 11 1019.6 1019.4 0.0
28/02:30am 13.0 7.7 -0.6 39 5.6 SSW 17 20 9 11 1019.7 1019.5 0.0
28/02:00am 11.4 7.0 -2.8 37 5.5 SSW 11 13 6 7 1019.3 1019.2 0.0
28/01:30am 12.4 8.4 -1.9 37 5.7 SW 9 13 5 7 1019.3 1019.2 0.0
28/01:00am 12.6 7.9 -2.1 36 5.8 SW 13 15 7 8 1019.2 1019.1 0.0
28/12:30am 12.5 7.7 -2.5 35 5.9 SW 13 15 7 8 1019.3 1019.2 0.0
28/12:00am 13.5 9.5 -2.4 33 6.3 SW 9 13 5 7 1019.2 1019.1 0.0
 
Date/Time
CST
Temp
°C
App
Temp
°C
Dew
Point
°C
Rel
Hum
%
Delta-T
°C
Wind Press
QNH
hPa
Press
MSL
hPa
Rain since
9am
mm
Dir  Spd
km/h
Gust
km/h
Spd
kts
Gust
kts
27/11:30pm 13.8 10.4 -2.2 33 6.4 S 6 9 3 5 1019.2 1019.1 0.0
27/11:00pm 14.6 11.0 -2.3 31 6.8 SSW 7 9 4 5 1019.0 1018.9 0.0
27/10:30pm 15.4 11.8 -2.1 30 7.1 SSW 7 9 4 5 1018.9 1018.8 0.0
27/10:00pm 16.5 12.2 -1.6 29 7.5 SSW 11 13 6 7 1018.9 1018.8 0.0
27/09:30pm 16.9 11.8 -1.7 28 7.7 SSW 15 15 8 8 1018.9 1018.8 0.0
27/09:00pm 18.0 13.7 -1.8 26 8.3 SSW 11 15 6 8 1018.7 1018.6 0.0
27/08:30pm 19.1 14.4 -1.9 24 8.9 SW 13 17 7 9 1018.5 1018.4 0.0
27/08:00pm 20.6 15.1 -1.8 22 9.6 SW 17 20 9 11 1018.0 1017.9 0.0
27/07:30pm 21.4 15.4 -1.8 21 10.0 SW 20 24 11 13 1017.5 1017.4 0.0
27/07:00pm 21.9 15.9 -1.4 21 10.2 SW 20 24 11 13 1017.1 1017.0 0.0
27/06:30pm 22.8 17.0 -1.3 20 10.7 SW 19 20 10 11 1016.6 1016.5 0.0
27/06:00pm 24.1 17.9 -0.2 20 11.1 SW 22 28 12 15 1016.1 1015.9 0.0
27/05:30pm 25.4 19.6 0.1 19 11.7 SW 20 28 11 15 1015.8 1015.6 0.0
27/05:00pm 26.2 19.4 0.8 19 12.0 SW 26 37 14 20 1015.5 1015.3 0.0
27/04:30pm 27.0 19.8 0.7 18 12.5 WSW 28 33 15 18 1015.2 1015.0 0.0
27/04:00pm 27.2 20.4 0.8 18 12.6 WSW 26 39 14 21 1015.1 1014.9 0.0
27/03:30pm 27.6 21.0 1.9 19 12.5 WSW 26 39 14 21 1014.9 1014.7 0.0
27/03:00pm 27.6 21.1 0.4 17 12.9 WSW 24 30 13 16 1014.8 1014.6 0.0
27/02:30pm 27.9 22.4 4.2 22 12.1 WSW 22 39 12 21 1014.7 1014.5 0.0
27/02:00pm 27.5 22.6 5.1 24 11.6 SW 20 32 11 17 1014.9 1014.7 0.0
27/01:30pm 27.6 22.3 5.2 24 11.6 WSW 22 32 12 17 1015.2 1015.0 0.0
27/01:00pm 27.3 22.4 5.0 24 11.5 W 20 30 11 16 1015.6 1015.4 0.0
27/12:30pm 25.8 22.1 4.3 25 10.8 WNW 13 24 7 13 1016.1 1015.9 0.0
27/12:00pm 25.0 19.8 3.6 25 10.6 NW 20 32 11 17 1016.6 1016.5 0.0
27/11:30am 23.6 17.5 3.0 26 10.0 NW 24 32 13 17 1017.2 1017.1 0.0
27/11:00am 23.5 17.0 2.9 26 9.9 NNW 26 35 14 19 1017.3 1017.2 0.0
27/10:30am 22.4 16.0 3.0 28 9.3 NNW 26 33 14 18 1017.7 1017.6 0.0
27/10:00am 21.3 15.3 3.5 31 8.6 NW 24 32 13 17 1018.1 1018.0 0.0
27/09:30am 19.8 14.5 3.1 33 7.9 NNW 20 28 11 15 1018.0 1017.9 0.0
27/09:00am 17.4 12.7 3.0 38 6.6 NNW 17 24 9 13 1018.0 1017.9 0.0
27/08:30am 15.2 11.9 2.7 43 5.6 N 9 13 5 7 1017.9 1017.8 0.0
27/08:00am 12.5 9.1 2.1 49 4.5 N 9 13 5 7 1017.8 1017.7 0.0
27/07:30am 11.2 7.8 2.0 53 3.9 NNW 9 11 5 6 1017.6 1017.5 0.0
27/07:00am 11.4 8.1 2.2 53 4.0 N 9 11 5 6 1017.3 1017.2 0.0
27/06:30am 11.1 7.0 2.2 54 3.8 NNW 13 13 7 7 1017.2 1017.1 0.0
27/06:00am 11.2 7.9 2.2 54 3.9 NW 9 11 5 6 1017.1 1017.0 0.0
27/05:30am 11.5 8.1 2.0 52 4.1 NNW 9 11 5 6 1016.7 1016.6 0.0
27/05:00am 12.9 9.6 2.2 48 4.7 NNW 9 11 5 6 1016.7 1016.6 0.0
27/04:30am 14.4 10.4 2.9 46 5.2 N 13 17 7 9 1016.7 1016.6 0.0
27/04:00am 15.1 11.9 3.3 45 5.4 NNW 9 11 5 6 1016.8 1016.7 0.0
27/03:30am 14.4 11.1 2.6 45 5.3 N 9 13 5 7 1016.8 1016.7 0.0
27/03:00am 15.6 12.1 3.4 44 5.6 NNE 11 15 6 8 1016.8 1016.7 0.0
27/02:30am 15.5 11.2 3.0 43 5.7 NE 15 19 8 10 1016.9 1016.8 0.0
27/02:00am 16.2 11.9 3.3 42 5.9 NNE 15 19 8 10 1017.3 1017.2 0.0
27/01:30am 15.9 11.2 3.4 43 5.7 NE 17 19 9 10 1017.4 1017.3 0.0
27/01:00am 16.4 12.1 3.1 41 6.1 NNE 15 19 8 10 1017.6 1017.5 0.0
27/12:30am 16.6 12.3 3.0 40 6.2 NE 15 20 8 11 1017.7 1017.6 0.0
27/12:00am 17.6 13.3 3.1 38 6.7 NNE 15 20 8 11 1017.7 1017.6 0.0
 
Date/Time
CST
Temp
°C
App
Temp
°C
Dew
Point
°C
Rel
Hum
%
Delta-T
°C
Wind Press
QNH
hPa
Press
MSL
hPa
Rain since
9am
mm
Dir  Spd
km/h
Gust
km/h
Spd
kts
Gust
kts
26/11:30pm 17.5 13.2 3.4 39 6.6 NNE 15 17 8 9 1017.8 1017.7 0.0
26/11:00pm 17.6 12.5 3.1 38 6.7 NE 19 22 10 12 1017.6 1017.5 0.0
26/10:30pm 17.7 12.6 2.8 37 6.9 NNE 19 22 10 12 1017.7 1017.6 0.0
26/10:00pm 18.2 13.5 3.3 37 7.0 NNE 17 20 9 11 1017.6 1017.5 0.0
26/09:30pm 18.0 13.3 3.1 37 6.9 NNE 17 20 9 11 1017.7 1017.6 0.0
26/09:00pm 18.4 13.6 2.7 35 7.3 NE 17 19 9 10 1017.6 1017.5 0.0
26/08:30pm 18.6 14.2 2.9 35 7.3 NE 15 17 8 9 1017.5 1017.4 0.0
26/08:00pm 20.4 15.7 3.2 32 8.2 NNE 17 19 9 10 1017.5 1017.4 0.0
26/07:30pm 20.6 16.3 3.3 32 8.2 NNE 15 17 8 9 1017.3 1017.2 0.0
26/07:00pm 21.0 17.4 2.8 30 8.6 NNE 11 13 6 7 1017.3 1017.2 0.0
26/06:30pm 21.9 18.3 3.1 29 9.0 NE 11 13 6 7 1017.0 1016.9 0.0
26/06:00pm 22.9 19.7 2.9 27 9.6 NE 9 13 5 7 1016.8 1016.7 0.0
26/05:30pm 24.5 21.4 3.8 26 10.2 NNE 9 15 5 8 1016.6 1016.5 0.0
26/05:00pm 25.2 22.1 3.8 25 10.6 NNE 9 19 5 10 1016.5 1016.4 0.0
26/04:30pm 25.4 22.9 4.0 25 10.7 NNE 6 11 3 6 1016.5 1016.4 0.0
26/04:00pm 25.4 22.9 4.5 26 10.5 NNW 7 11 4 6 1016.8 1016.7 0.0
26/03:30pm 25.3 22.3 3.9 25 10.6 NNE 9 17 5 9 1016.9 1016.8 0.0
26/03:00pm 25.8 22.8 4.3 25 10.8 N 9 17 5 9 1017.0 1016.9 0.0
26/02:30pm 25.3 21.6 4.4 26 10.5 NNW 13 19 7 10 1017.5 1017.4 0.0
26/02:00pm 24.9 22.3 4.1 26 10.4 NNW 7 19 4 10 1017.9 1017.8 0.0
26/01:30pm 25.1 21.4 4.3 26 10.4 NNE 13 20 7 11 1018.3 1018.2 0.0
26/01:00pm 24.5 21.9 4.3 27 10.1 NNE 7 17 4 9 1018.9 1018.8 0.0
26/12:30pm 23.8 20.1 4.2 28 9.7 NE 13 19 7 10 1019.6 1019.4 0.0
26/12:00pm 23.4 20.1 4.4 29 9.4 ENE 11 19 6 10 1020.2 1020.0 0.0
26/11:30am 22.7 19.3 4.2 30 9.1 NNE 11 17 6 9 1020.7 1020.5 0.0
26/11:00am 21.8 18.1 4.4 32 8.5 NNE 13 19 7 10 1021.2 1021.0 0.0
26/10:30am 21.3 17.0 5.2 35 8.0 NE 17 20 9 11 1021.4 1021.2 0.0
26/10:00am 20.4 16.3 6.0 39 7.2 NE 17 20 9 11 1021.6 1021.4 0.0
26/09:30am 19.2 15.6 6.7 44 6.3 NE 15 19 8 10 1021.9 1021.7 0.0
26/09:00am 17.7 14.8 6.3 47 5.6 ENE 11 15 6 8 1021.8 1021.6 0.0
26/08:30am 16.2 14.7 5.2 48 5.2 N 2 6 1 3 1021.9 1021.7 0.0
26/08:00am 14.0 11.5 4.9 54 4.3 N 7 7 4 4 1022.0 1021.8 0.0
26/07:30am 12.2 9.4 3.4 55 3.9 N 7 9 4 5 1021.6 1021.4 0.0
26/07:00am 12.7 9.7 4.2 56 3.9 NNW 9 9 5 5 1021.3 1021.1 0.0
26/06:30am 12.3 9.2 3.8 56 3.8 NW 9 11 5 6 1021.0 1020.8 0.0
26/06:00am 14.0 11.9 3.8 50 4.6 NE 4 7 2 4 1020.7 1020.5 0.0
26/05:30am 14.6 12.1 4.6 51 4.7 NE 7 7 4 4 1020.4 1020.2 0.0
26/05:00am 14.8 12.3 3.9 48 5.0 NE 6 9 3 5 1020.4 1020.2 0.0
26/04:30am 15.1 12.7 4.2 48 5.1 ENE 6 7 3 4 1020.5 1020.3 0.0
26/04:00am 15.1 13.8 4.2 48 5.1 CALM 0 0 0 0 1020.6 1020.4 0.0
26/03:30am 15.1 12.4 3.9 47 5.2 ENE 7 7 4 4 1020.6 1020.4 0.0
26/03:00am 16.3 13.4 4.4 45 5.6 NE 9 11 5 6 1020.8 1020.6 0.0
26/02:30am 17.0 14.2 5.0 45 5.7 NE 9 13 5 7 1020.9 1020.7 0.0
26/02:00am 17.3 14.1 4.9 44 6.0 NE 11 13 6 7 1020.8 1020.6 0.0
26/01:30am 18.0 14.1 5.2 43 6.2 ENE 15 19 8 10 1020.9 1020.7 0.0
26/01:00am 18.4 14.2 5.6 43 6.3 ENE 17 20 9 11 1021.1 1020.9 0.0
26/12:30am 18.7 14.0 5.2 41 6.6 ENE 19 24 10 13 1021.1 1020.9 0.0
26/12:00am 18.8 14.1 5.3 41 6.6 E 19 22 10 12 1021.3 1021.1 0.0

Other Formats:

Comma delimited format used in spreadsheet applications
http://www.bom.gov.au/fwo/IDS60801/IDS60801.94476.axf

JavaScript Object Notation format (JSON) in row-major order
http://www.bom.gov.au/fwo/IDS60801/IDS60801.94476.json